createdAt,value
2023-03-06T00:01:03.013Z,10.18
2023-03-06T00:03:30.486Z,9.35
2023-03-06T00:05:58.862Z,10.93
2023-03-06T00:08:28.826Z,9.32
2023-03-06T00:10:57.029Z,8.73
2023-03-06T00:13:26.782Z,8.80
2023-03-06T00:15:54.526Z,8.25
2023-03-06T00:18:22.004Z,8.73
2023-03-06T00:20:49.468Z,8.82
2023-03-06T00:23:16.887Z,8.38
2023-03-06T00:25:45.853Z,8.75
2023-03-06T00:28:15.750Z,8.48
2023-03-06T00:30:44.414Z,9.77
2023-03-06T00:33:12.255Z,10.82
2023-03-06T00:35:41.242Z,8.82
2023-03-06T00:38:12.796Z,8.27
2023-03-06T00:40:40.606Z,8.30
2023-03-06T00:43:08.060Z,8.97
2023-03-06T00:45:36.501Z,9.00
2023-03-06T00:48:04.577Z,9.90
2023-03-06T00:50:32.239Z,17.40
2023-03-06T00:53:00.524Z,10.20
2023-03-06T00:55:29.522Z,10.95
2023-03-06T00:57:57.034Z,14.98
2023-03-06T01:00:25.029Z,13.52
2023-03-06T01:02:53.716Z,17.15
2023-03-06T01:05:22.891Z,26.00
2023-03-06T01:07:50.370Z,22.63
2023-03-06T01:10:17.945Z,23.45
2023-03-06T01:12:46.122Z,21.65
2023-03-06T01:15:14.338Z,24.42
2023-03-06T01:17:41.814Z,23.27
2023-03-06T01:20:15.057Z,26.25
2023-03-06T01:22:43.475Z,41.63
2023-03-06T01:25:11.759Z,47.63
2023-03-06T01:27:39.318Z,29.92
2023-03-06T01:30:07.831Z,21.92
2023-03-06T01:32:35.300Z,17.80
2023-03-06T01:35:03.990Z,15.37
2023-03-06T01:37:31.414Z,14.65
2023-03-06T01:39:58.757Z,14.50
2023-03-06T01:42:26.057Z,13.63
2023-03-06T01:45:24.077Z,12.88
2023-03-06T01:47:51.479Z,13.52
2023-03-06T01:50:19.045Z,14.93
2023-03-06T01:52:54.293Z,43.63
2023-03-06T01:55:29.609Z,33.80
2023-03-06T01:58:03.490Z,81.50
2023-03-06T02:00:31.172Z,67.50
2023-03-06T02:03:11.285Z,34.97
2023-03-06T02:05:41.308Z,20.25
2023-03-06T02:08:17.838Z,15.15
2023-03-06T02:11:13.894Z,12.95
2023-03-06T02:13:43.431Z,13.20
2023-03-06T02:16:13.587Z,12.82
2023-03-06T02:18:44.076Z,13.65
2023-03-06T02:21:21.858Z,14.45
2023-03-06T02:24:13.708Z,15.27
2023-03-06T02:26:43.344Z,15.27
2023-03-06T02:29:11.513Z,17.00
2023-03-06T02:31:38.922Z,18.00
2023-03-06T02:34:14.690Z,20.30
2023-03-06T02:36:55.157Z,13.82
2023-03-06T02:39:26.723Z,14.88
2023-03-06T02:41:55.081Z,16.25
2023-03-06T02:46:51.106Z,19.25
2023-03-06T02:49:18.474Z,19.77
2023-03-06T02:51:46.190Z,22.23
2023-03-06T02:54:13.595Z,38.85
2023-03-06T02:56:43.139Z,43.55
2023-03-06T02:59:11.193Z,52.00
2023-03-06T03:01:39.258Z,55.50
2023-03-06T03:04:06.955Z,63.05
2023-03-06T03:06:34.369Z,63.03
2023-03-06T03:09:02.267Z,61.53
2023-03-06T03:11:29.853Z,59.60
2023-03-06T03:13:57.210Z,60.70
2023-03-06T03:16:27.342Z,57.75
2023-03-06T03:18:58.518Z,67.10
2023-03-06T03:23:55.996Z,94.32
2023-03-06T03:26:26.072Z,90.20
2023-03-06T03:29:08.401Z,86.90
2023-03-06T03:31:35.842Z,61.85
2023-03-06T03:34:04.209Z,72.60
2023-03-06T03:36:35.208Z,63.83
2023-03-06T03:39:04.608Z,47.42
2023-03-06T03:44:04.182Z,42.17
2023-03-06T03:46:32.455Z,36.15
2023-03-06T03:49:01.760Z,38.28
2023-03-06T03:51:29.248Z,45.00
2023-03-06T03:53:58.604Z,39.72
2023-03-06T03:56:29.389Z,38.25
2023-03-06T03:59:03.089Z,32.67
2023-03-06T04:01:39.666Z,33.47
2023-03-06T04:04:08.127Z,30.88
2023-03-06T04:06:36.088Z,32.15
2023-03-06T04:09:04.599Z,27.88
2023-03-06T04:13:59.997Z,26.17
2023-03-06T04:16:27.485Z,25.88
2023-03-06T04:18:55.493Z,23.88
2023-03-06T04:21:23.163Z,28.33
2023-03-06T04:23:50.622Z,29.50
2023-03-06T04:26:18.019Z,27.85
2023-03-06T04:28:46.182Z,74.78
2023-03-06T04:31:13.974Z,42.88
2023-03-06T04:33:41.514Z,35.45
2023-03-06T04:36:32.124Z,33.38
2023-03-06T04:39:05.179Z,35.10
2023-03-06T04:41:34.550Z,33.95
2023-03-06T04:44:02.270Z,43.60
2023-03-06T04:46:29.687Z,74.28
2023-03-06T04:48:58.194Z,49.47
2023-03-06T04:51:26.088Z,44.10
2023-03-06T04:53:53.622Z,43.55
2023-03-06T04:56:21.041Z,43.08
2023-03-06T04:58:48.503Z,35.88
2023-03-06T05:01:15.992Z,36.67
2023-03-06T05:03:43.419Z,88.85
2023-03-06T05:06:10.884Z,65.85
2023-03-06T05:08:38.923Z,48.00
2023-03-06T05:11:06.360Z,47.08
2023-03-06T05:13:34.045Z,58.72
2023-03-06T05:16:06.280Z,36.57
2023-03-06T05:18:34.846Z,32.28
2023-03-06T05:23:33.101Z,28.87
2023-03-06T05:26:00.648Z,27.42
2023-03-06T05:28:28.682Z,23.70
2023-03-06T05:30:56.330Z,25.23
2023-03-06T05:33:23.814Z,26.10
2023-03-06T05:35:51.260Z,23.45
2023-03-06T05:38:18.844Z,27.70
2023-03-06T05:40:46.456Z,32.78
2023-03-06T05:43:13.999Z,33.17
2023-03-06T05:45:41.783Z,36.97
2023-03-06T05:48:11.835Z,57.58
2023-03-06T05:50:40.269Z,74.20
2023-03-06T05:53:07.627Z,28.30
2023-03-06T05:55:35.217Z,30.42
2023-03-06T05:58:02.626Z,39.60
2023-03-06T06:00:30.173Z,39.88
2023-03-06T06:03:02.016Z,43.00
2023-03-06T06:05:29.382Z,35.80
2023-03-06T06:07:56.804Z,32.72
2023-03-06T06:10:24.145Z,25.73
2023-03-06T06:12:51.528Z,26.02
2023-03-06T06:15:18.909Z,24.90
2023-03-06T06:17:46.360Z,22.52
2023-03-06T06:20:14.551Z,32.30
2023-03-06T06:22:41.920Z,32.65
2023-03-06T06:25:09.638Z,30.70
2023-03-06T06:27:36.985Z,26.90
2023-03-06T06:30:07.161Z,29.05
2023-03-06T06:32:34.937Z,30.98
2023-03-06T06:35:02.931Z,76.25
2023-03-06T06:37:31.180Z,27.55
2023-03-06T06:39:58.484Z,23.90
2023-03-06T06:42:33.263Z,18.95
2023-03-06T06:45:05.189Z,18.17
2023-03-06T06:47:34.229Z,20.15
2023-03-06T06:50:01.713Z,43.95
2023-03-06T06:52:29.090Z,116.07
2023-03-06T06:54:56.687Z,115.93
2023-03-06T06:57:23.990Z,93.47
2023-03-06T06:59:53.696Z,58.25
2023-03-06T07:02:21.906Z,66.65
2023-03-06T07:05:03.228Z,62.90
2023-03-06T07:07:35.718Z,65.32
2023-03-06T07:10:12.734Z,60.13
2023-03-06T07:12:40.292Z,61.08
2023-03-06T07:15:09.105Z,63.00
2023-03-06T07:17:36.434Z,60.50
2023-03-06T07:20:07.009Z,69.13
2023-03-06T07:22:49.936Z,75.00
2023-03-06T07:25:19.824Z,59.85
2023-03-06T07:27:53.351Z,53.60
2023-03-06T07:30:25.013Z,52.00
2023-03-06T07:32:55.214Z,42.25
2023-03-06T07:35:24.931Z,39.30
2023-03-06T07:37:52.771Z,40.22
2023-03-06T07:40:21.423Z,40.03
2023-03-06T07:42:48.853Z,42.95
2023-03-06T07:45:20.346Z,43.13
2023-03-06T07:47:50.936Z,42.10
2023-03-06T07:50:19.698Z,42.58
2023-03-06T07:52:50.121Z,46.63
2023-03-06T07:55:18.542Z,39.30
2023-03-06T07:57:46.417Z,46.50
2023-03-06T08:00:16.115Z,43.60
2023-03-06T08:02:43.608Z,48.42
2023-03-06T08:05:15.504Z,43.35
2023-03-06T08:07:45.049Z,42.17
2023-03-06T08:10:16.483Z,36.53
2023-03-06T08:12:44.201Z,40.85
2023-03-06T08:15:12.952Z,40.67
2023-03-06T08:17:40.782Z,35.67
2023-03-06T08:20:10.428Z,34.05
2023-03-06T08:22:38.620Z,32.42
2023-03-06T08:25:07.559Z,24.45
2023-03-06T08:27:35.538Z,25.63
2023-03-06T08:30:03.789Z,22.88
2023-03-06T08:34:58.471Z,23.35
2023-03-06T08:37:25.917Z,27.20
2023-03-06T08:39:53.309Z,26.10
2023-03-06T08:42:20.621Z,25.00
2023-03-06T08:44:48.016Z,25.13
2023-03-06T08:47:15.398Z,23.57
2023-03-06T08:49:42.741Z,21.53
2023-03-06T08:52:11.158Z,19.60
2023-03-06T08:54:39.780Z,19.30
2023-03-06T08:57:07.201Z,19.33
2023-03-06T08:59:35.212Z,21.67
2023-03-06T09:02:03.965Z,19.95
2023-03-06T09:04:31.745Z,15.80
2023-03-06T09:07:00.536Z,16.23
2023-03-06T09:09:28.007Z,16.80
2023-03-06T09:11:56.297Z,18.10
2023-03-06T09:16:50.859Z,21.70
2023-03-06T09:19:18.198Z,21.87
2023-03-06T09:21:45.610Z,18.17
2023-03-06T09:24:12.989Z,16.00
2023-03-06T09:26:46.027Z,14.93
2023-03-06T09:29:16.335Z,14.98
2023-03-06T09:31:44.945Z,14.63
2023-03-06T09:34:12.569Z,18.27
2023-03-06T09:36:55.040Z,14.07
2023-03-06T09:39:26.149Z,16.35
2023-03-06T09:41:55.250Z,14.40
2023-03-06T09:44:31.066Z,14.82
2023-03-06T09:47:44.838Z,16.05
2023-03-06T09:50:29.300Z,16.13
2023-03-06T09:53:11.837Z,16.80
2023-03-06T09:55:41.120Z,16.30
2023-03-06T09:58:27.585Z,17.73
2023-03-06T10:01:05.951Z,15.52
2023-03-06T10:04:12.584Z,15.68
2023-03-06T10:06:49.215Z,14.77
2023-03-06T10:09:20.692Z,15.68
2023-03-06T10:11:54.363Z,15.43
2023-03-06T10:14:47.735Z,15.27
2023-03-06T10:17:21.070Z,13.38
2023-03-06T10:19:49.376Z,14.25
2023-03-06T10:22:33.171Z,13.73
2023-03-06T10:25:25.994Z,16.40
2023-03-06T10:28:16.828Z,14.00
2023-03-06T10:31:26.646Z,13.85
2023-03-06T10:34:11.888Z,11.90
2023-03-06T10:36:39.255Z,11.63
2023-03-06T10:39:22.536Z,11.95
2023-03-06T10:41:50.176Z,12.40
2023-03-06T10:44:20.337Z,11.50
2023-03-06T10:46:52.708Z,11.93
2023-03-06T10:49:37.582Z,14.13
2023-03-06T10:52:14.207Z,11.65
2023-03-06T10:54:45.010Z,11.45
2023-03-06T10:57:29.691Z,13.48
2023-03-06T11:00:01.208Z,9.73
2023-03-06T11:02:40.918Z,9.50
2023-03-06T11:05:20.754Z,8.75
2023-03-06T11:07:59.474Z,9.25
2023-03-06T11:10:30.246Z,8.90
2023-03-06T11:13:25.888Z,11.05
2023-03-06T11:16:03.278Z,8.30
2023-03-06T11:18:42.769Z,7.57
2023-03-06T11:21:32.759Z,7.60
2023-03-06T11:24:16.696Z,7.00
2023-03-06T11:26:50.479Z,8.75
2023-03-06T11:29:31.230Z,8.57
2023-03-06T11:32:33.148Z,9.00
2023-03-06T11:35:12.284Z,8.45
2023-03-06T11:38:10.834Z,8.63
2023-03-06T11:40:51.385Z,6.75
2023-03-06T11:44:06.422Z,8.35
2023-03-06T11:46:57.933Z,5.60
2023-03-06T11:49:43.481Z,8.75
2023-03-06T11:52:44.487Z,5.80
2023-03-06T11:55:17.514Z,5.50
2023-03-06T11:58:11.964Z,5.30
2023-03-06T12:01:00.155Z,5.00
2023-03-06T12:03:42.144Z,9.32
2023-03-06T12:06:18.328Z,5.35
2023-03-06T12:08:51.447Z,5.00
2023-03-06T12:12:01.087Z,5.57
2023-03-06T12:14:46.700Z,5.63
2023-03-06T12:17:41.214Z,6.00
2023-03-06T12:20:14.512Z,6.40
2023-03-06T12:23:16.141Z,9.20
2023-03-06T12:25:51.515Z,12.50
2023-03-06T12:28:54.778Z,8.15
2023-03-06T12:31:54.597Z,8.35
2023-03-06T12:35:02.415Z,8.27
2023-03-06T12:37:51.451Z,21.17
2023-03-06T12:40:36.078Z,7.88
2023-03-06T12:43:39.972Z,7.90
2023-03-06T12:46:26.130Z,7.13
2023-03-06T12:49:15.621Z,7.75
2023-03-06T12:51:46.362Z,8.05
2023-03-06T12:54:14.935Z,9.38
2023-03-06T12:56:43.557Z,8.77
2023-03-06T12:59:38.456Z,12.35
2023-03-06T13:02:27.636Z,8.23
2023-03-06T13:05:03.769Z,7.38
2023-03-06T13:07:58.033Z,8.60
2023-03-06T13:10:30.722Z,11.15
2023-03-06T13:13:05.272Z,9.00
2023-03-06T13:16:09.321Z,12.82
2023-03-06T13:18:36.884Z,12.13
2023-03-06T13:21:04.961Z,10.50
2023-03-06T13:23:32.253Z,9.82
2023-03-06T13:26:25.056Z,14.43
2023-03-06T13:28:56.226Z,11.40
2023-03-06T13:32:14.628Z,11.63
2023-03-06T13:34:48.535Z,14.45
2023-03-06T13:37:19.407Z,17.98
2023-03-06T13:39:55.415Z,7.03
2023-03-06T13:42:37.273Z,7.28
2023-03-06T13:45:14.171Z,6.43
2023-03-06T13:48:37.534Z,5.95
2023-03-06T13:50:49.547Z,7.47
2023-03-06T13:56:50.374Z,6.28
2023-03-06T13:59:17.644Z,5.80
2023-03-06T14:02:15.753Z,7.70
2023-03-06T14:04:53.677Z,8.65
2023-03-06T14:07:30.304Z,10.20
2023-03-06T14:10:22.868Z,8.05
2023-03-06T14:12:50.184Z,4.90
2023-03-06T14:15:21.751Z,6.15
2023-03-06T14:18:07.440Z,4.47
2023-03-06T14:20:52.362Z,5.53
2023-03-06T14:23:42.538Z,5.55
2023-03-06T14:26:24.835Z,6.38
2023-03-06T14:28:52.181Z,6.30
2023-03-06T14:31:41.300Z,5.57
2023-03-06T14:34:22.400Z,8.77
2023-03-06T14:36:58.194Z,17.67
2023-03-06T14:39:39.149Z,8.38
2023-03-06T14:42:24.735Z,7.80
2023-03-06T14:45:16.207Z,11.70
2023-03-06T14:47:50.389Z,15.13
2023-03-06T14:50:20.164Z,9.90
2023-03-06T14:52:50.372Z,10.88
2023-03-06T14:55:25.452Z,16.27
2023-03-06T14:58:20.175Z,7.45
2023-03-06T15:00:54.575Z,6.35
2023-03-06T15:03:35.632Z,11.65
2023-03-06T15:06:04.869Z,8.43
2023-03-06T15:08:39.166Z,7.80
2023-03-06T15:11:07.939Z,15.02
2023-03-06T15:13:35.778Z,14.48
2023-03-06T15:16:06.203Z,11.68
2023-03-06T15:18:35.475Z,23.60
2023-03-06T15:21:16.288Z,26.40
2023-03-06T15:23:48.434Z,20.40
2023-03-06T15:26:36.883Z,25.80
2023-03-06T15:29:10.850Z,38.38
2023-03-06T15:31:44.532Z,21.48
2023-03-06T15:34:11.930Z,25.70
2023-03-06T15:36:44.897Z,17.00
2023-03-06T15:39:39.334Z,13.00
2023-03-06T15:42:28.090Z,16.92
2023-03-06T15:45:05.597Z,16.17
2023-03-06T15:47:33.152Z,17.52
2023-03-06T15:50:00.506Z,19.97
2023-03-06T15:52:27.948Z,24.90
2023-03-06T15:54:55.250Z,19.65
2023-03-06T15:57:26.700Z,17.55
2023-03-06T15:59:56.250Z,16.60
2023-03-06T16:02:24.606Z,22.15
2023-03-06T16:04:52.673Z,35.22
2023-03-06T16:07:20.728Z,26.55
2023-03-06T16:09:48.576Z,27.67
2023-03-06T16:12:20.222Z,25.27
2023-03-06T16:14:48.854Z,24.58
2023-03-06T16:17:17.462Z,28.60
2023-03-06T16:19:45.291Z,35.30
2023-03-06T16:22:12.853Z,29.38
2023-03-06T16:24:40.704Z,24.95
2023-03-06T16:27:19.074Z,27.75
2023-03-06T16:29:46.618Z,27.88
2023-03-06T16:32:14.423Z,24.90
2023-03-06T16:34:41.967Z,15.38
2023-03-06T16:37:13.404Z,22.38
2023-03-06T16:39:40.838Z,20.33
2023-03-06T16:42:08.448Z,19.92
2023-03-06T16:44:35.891Z,29.17
2023-03-06T16:47:03.313Z,14.35
2023-03-06T16:49:30.728Z,18.27
2023-03-06T16:51:58.100Z,13.57
2023-03-06T16:54:26.237Z,21.15
2023-03-06T16:56:53.685Z,18.30
2023-03-06T16:59:21.228Z,17.23
2023-03-06T17:01:48.613Z,15.60
2023-03-06T17:04:15.955Z,12.48
2023-03-06T17:06:43.437Z,18.73
2023-03-06T17:09:11.072Z,30.80
2023-03-06T17:11:38.817Z,35.78
2023-03-06T17:14:07.017Z,48.75
2023-03-06T17:16:36.537Z,46.65
2023-03-06T17:19:04.080Z,63.30
2023-03-06T17:21:34.408Z,64.57
2023-03-06T17:24:03.691Z,78.30
2023-03-06T17:26:31.337Z,84.78
2023-03-06T17:28:58.739Z,85.43
2023-03-06T17:31:28.560Z,85.00
2023-03-06T17:33:59.258Z,80.85
2023-03-06T17:36:31.275Z,83.10
2023-03-06T17:39:01.953Z,92.75
2023-03-06T17:41:29.959Z,92.07
2023-03-06T17:43:58.307Z,82.43
2023-03-06T17:46:26.270Z,86.57
2023-03-06T17:48:55.474Z,84.80
2023-03-06T17:51:22.892Z,72.15
2023-03-06T17:53:52.147Z,41.95
2023-03-06T17:56:19.801Z,30.98
2023-03-06T17:58:47.648Z,30.77
2023-03-06T18:01:22.160Z,34.95
2023-03-06T18:03:51.532Z,40.00
2023-03-06T18:06:22.070Z,48.47
2023-03-06T18:08:52.375Z,56.60
2023-03-06T18:11:21.088Z,47.35
2023-03-06T18:13:49.293Z,57.33
2023-03-06T18:16:19.950Z,56.90
2023-03-06T18:18:47.408Z,57.97
2023-03-06T18:21:16.700Z,38.38
2023-03-06T18:23:44.417Z,47.92
2023-03-06T18:26:25.524Z,42.40
2023-03-06T18:28:56.565Z,42.28
2023-03-06T18:31:34.439Z,51.95
2023-03-06T18:34:08.048Z,42.55
2023-03-06T18:36:37.149Z,38.80
2023-03-06T18:39:08.940Z,34.97
2023-03-06T18:41:37.331Z,36.80
2023-03-06T18:44:05.967Z,37.50
2023-03-06T18:46:37.303Z,43.20
2023-03-06T18:49:05.641Z,38.30
2023-03-06T18:51:33.736Z,34.97
2023-03-06T18:54:03.058Z,40.90
2023-03-06T18:56:31.123Z,41.58
2023-03-06T18:59:06.934Z,50.00
2023-03-06T19:01:34.923Z,57.38
2023-03-06T19:04:04.497Z,92.05
2023-03-06T19:06:32.087Z,114.13
2023-03-06T19:09:01.426Z,128.30
2023-03-06T19:11:30.295Z,166.40
2023-03-06T19:13:58.440Z,128.48
2023-03-06T19:16:28.522Z,87.63
2023-03-06T19:18:57.294Z,55.33
2023-03-06T19:21:27.549Z,42.55
2023-03-06T19:23:56.140Z,29.15
2023-03-06T19:28:52.587Z,32.92
2023-03-06T19:31:25.357Z,42.78
2023-03-06T19:33:55.974Z,39.10
2023-03-06T19:36:27.798Z,35.35
2023-03-06T19:38:57.446Z,43.03
2023-03-06T19:41:25.696Z,38.63
2023-03-06T19:43:58.303Z,46.42
2023-03-06T19:46:27.340Z,50.83
2023-03-06T19:49:01.399Z,63.60
2023-03-06T19:51:29.437Z,52.95
2023-03-06T19:53:57.708Z,44.55
2023-03-06T19:56:28.344Z,35.67
2023-03-06T19:58:56.509Z,28.48
2023-03-06T20:01:26.569Z,23.15
2023-03-06T20:03:59.444Z,27.83
2023-03-06T20:06:33.809Z,31.15
2023-03-06T20:09:04.915Z,40.55
2023-03-06T20:11:32.528Z,32.72
2023-03-06T20:14:03.842Z,29.02
2023-03-06T20:16:33.066Z,23.77
2023-03-06T20:19:02.898Z,18.40
2023-03-06T20:21:35.428Z,14.02
2023-03-06T20:24:03.196Z,9.82
2023-03-06T20:26:31.614Z,21.15
2023-03-06T20:28:59.315Z,16.05
2023-03-06T20:31:29.339Z,14.00
2023-03-06T20:33:59.538Z,14.18
2023-03-06T20:36:35.940Z,13.98
2023-03-06T20:39:11.773Z,14.95
2023-03-06T20:41:40.744Z,19.02
2023-03-06T20:44:14.506Z,18.25
2023-03-06T20:46:44.420Z,14.38
2023-03-06T20:49:13.472Z,15.63
2023-03-06T20:51:41.840Z,18.48
2023-03-06T20:54:14.026Z,22.67
2023-03-06T20:56:45.998Z,25.83
2023-03-06T20:59:14.568Z,29.08
2023-03-06T21:04:14.089Z,20.58
2023-03-06T21:06:46.460Z,14.68
2023-03-06T21:09:17.032Z,13.57
2023-03-06T21:11:45.103Z,14.55
2023-03-06T21:14:14.345Z,18.02
2023-03-06T21:16:43.022Z,18.27
2023-03-06T21:19:11.116Z,19.02
2023-03-06T21:21:38.749Z,20.63
2023-03-06T21:24:06.350Z,16.33
2023-03-06T21:26:34.171Z,18.75
2023-03-06T21:29:02.933Z,19.38
2023-03-06T21:31:31.204Z,19.88
2023-03-06T21:33:59.446Z,18.52
2023-03-06T21:36:27.736Z,23.30
2023-03-06T21:38:55.819Z,29.85
2023-03-06T21:41:30.397Z,27.42
2023-03-06T21:44:03.863Z,21.13
2023-03-06T21:46:31.734Z,24.48
2023-03-06T21:48:59.801Z,20.55
2023-03-06T21:51:27.947Z,21.08
2023-03-06T21:53:55.854Z,24.58
2023-03-06T21:56:26.263Z,18.45
2023-03-06T21:58:54.336Z,15.73
2023-03-06T22:01:27.370Z,23.65
2023-03-06T22:03:55.258Z,20.73
2023-03-06T22:06:26.635Z,32.75
2023-03-06T22:09:00.584Z,33.83
2023-03-06T22:11:31.399Z,34.05
2023-03-06T22:13:59.915Z,23.30
2023-03-06T22:18:54.952Z,25.23
2023-03-06T22:21:23.881Z,15.48
2023-03-06T22:23:58.383Z,14.88
2023-03-06T22:26:30.149Z,18.08
2023-03-06T22:28:57.732Z,13.40
2023-03-06T22:31:28.871Z,13.88
2023-03-06T22:33:59.802Z,11.90
2023-03-06T22:36:30.655Z,13.15
2023-03-06T22:39:01.643Z,15.50
2023-03-06T22:41:30.018Z,14.35
2023-03-06T22:44:00.225Z,10.07
2023-03-06T22:46:28.240Z,9.50
2023-03-06T22:48:57.615Z,9.80
2023-03-06T22:51:26.217Z,9.75
2023-03-06T22:56:23.115Z,7.90
2023-03-06T22:58:51.033Z,7.55
2023-03-06T23:01:21.849Z,6.75
2023-03-06T23:03:52.673Z,6.40
2023-03-06T23:06:24.172Z,5.97
2023-03-06T23:08:58.743Z,10.50
2023-03-06T23:11:27.987Z,10.63
2023-03-06T23:14:16.040Z,8.80
2023-03-06T23:17:01.594Z,6.63
2023-03-06T23:19:49.825Z,9.27
2023-03-06T23:22:36.264Z,7.38
2023-03-06T23:25:21.989Z,7.20
2023-03-06T23:27:49.420Z,6.68
2023-03-06T23:30:17.121Z,7.10
2023-03-06T23:32:46.024Z,8.43
2023-03-06T23:35:14.074Z,6.57
2023-03-06T23:37:41.410Z,8.68
2023-03-06T23:40:10.208Z,9.15
2023-03-06T23:45:05.513Z,5.80
2023-03-06T23:47:34.250Z,5.78
2023-03-06T23:52:28.838Z,5.28
2023-03-06T23:54:56.161Z,5.40
2023-03-06T23:57:23.940Z,9.00
2023-03-06T23:59:51.348Z,7.15
